createdAt,value
2017-08-02T00:01:39.215Z,99.10
2017-08-02T00:04:06.877Z,99.20
2017-08-02T00:06:34.480Z,99.40
2017-08-02T00:09:02.053Z,99.70
2017-08-02T00:11:30.721Z,99.90
2017-08-02T00:13:58.297Z,99.90
2017-08-02T00:16:26.632Z,99.90
2017-08-02T00:18:54.225Z,99.90
2017-08-02T00:21:21.918Z,99.90
2017-08-02T00:23:49.528Z,99.90
2017-08-02T00:26:17.124Z,99.90
2017-08-02T00:28:45.145Z,99.90
2017-08-02T00:31:12.725Z,99.90
2017-08-02T00:33:40.299Z,99.90
2017-08-02T00:36:08.634Z,99.90
2017-08-02T00:38:36.244Z,99.90
2017-08-02T00:41:03.837Z,99.90
2017-08-02T00:43:31.400Z,99.90
2017-08-02T00:45:59.015Z,99.90
2017-08-02T00:48:26.574Z,99.90
2017-08-02T00:50:55.024Z,99.90
2017-08-02T00:53:22.588Z,99.90
2017-08-02T00:55:50.434Z,99.90
2017-08-02T00:58:18.008Z,99.90
2017-08-02T01:00:45.638Z,99.90
2017-08-02T01:03:13.226Z,99.90
2017-08-02T01:05:40.835Z,99.90
2017-08-02T01:08:08.426Z,99.90
2017-08-02T01:10:35.989Z,99.90
2017-08-02T01:13:03.562Z,99.90
2017-08-02T01:15:31.113Z,99.90
2017-08-02T01:17:58.717Z,99.90
2017-08-02T01:20:27.062Z,99.90
2017-08-02T01:22:54.922Z,99.90
2017-08-02T01:25:22.509Z,99.90
2017-08-02T01:27:50.876Z,99.90
2017-08-02T01:30:18.470Z,99.90
2017-08-02T01:32:46.067Z,99.90
2017-08-02T01:35:13.643Z,99.90
2017-08-02T01:37:41.219Z,99.90
2017-08-02T01:40:08.790Z,99.90
2017-08-02T01:42:36.469Z,99.90
2017-08-02T01:45:04.057Z,99.90
2017-08-02T01:47:31.665Z,99.90
2017-08-02T01:50:00.009Z,99.90
2017-08-02T01:52:27.575Z,99.90
2017-08-02T01:54:55.164Z,99.90
2017-08-02T01:57:22.769Z,99.90
2017-08-02T01:59:50.384Z,99.90
2017-08-02T02:02:17.991Z,99.70
2017-08-02T02:04:45.564Z,99.80
2017-08-02T02:07:13.146Z,99.40
2017-08-02T02:09:41.577Z,99.00
2017-08-02T02:12:09.180Z,99.20
2017-08-02T02:14:36.844Z,99.40
2017-08-02T02:17:05.198Z,99.90
2017-08-02T02:19:32.770Z,99.90
2017-08-02T02:22:00.344Z,99.90
2017-08-02T02:24:28.675Z,99.90
2017-08-02T02:26:56.561Z,99.90
2017-08-02T02:29:24.149Z,99.90
2017-08-02T02:31:53.256Z,99.90
2017-08-02T02:34:21.068Z,99.90
2017-08-02T02:36:48.687Z,99.90
2017-08-02T02:39:16.297Z,99.90
2017-08-02T02:41:43.879Z,99.90
2017-08-02T02:44:11.465Z,99.90
2017-08-02T02:46:39.019Z,99.90
2017-08-02T02:49:06.608Z,99.90
2017-08-02T02:51:34.171Z,99.90
2017-08-02T02:54:02.047Z,99.90
2017-08-02T02:56:29.626Z,99.90
2017-08-02T02:58:57.214Z,99.90
2017-08-02T03:01:25.564Z,99.90
2017-08-02T03:03:53.147Z,99.90
2017-08-02T03:06:21.517Z,99.90
2017-08-02T03:08:49.085Z,99.90
2017-08-02T03:11:16.668Z,99.90
2017-08-02T03:13:44.247Z,99.90
2017-08-02T03:16:12.137Z,99.90
2017-08-02T03:18:39.713Z,99.90
2017-08-02T03:21:07.301Z,99.90
2017-08-02T03:23:34.897Z,99.90
2017-08-02T03:26:02.466Z,99.90
2017-08-02T03:28:30.065Z,99.90
2017-08-02T03:30:58.385Z,99.90
2017-08-02T03:33:25.967Z,99.90
2017-08-02T03:35:53.546Z,99.90
2017-08-02T03:38:21.902Z,99.90
2017-08-02T03:40:49.498Z,99.90
2017-08-02T03:43:17.857Z,99.90
2017-08-02T03:45:45.425Z,99.90
2017-08-02T03:48:14.084Z,99.90
2017-08-02T03:50:41.698Z,99.90
2017-08-02T03:53:09.264Z,99.90
2017-08-02T03:55:36.881Z,99.90
2017-08-02T03:58:04.447Z,99.90
2017-08-02T04:00:32.852Z,99.90
2017-08-02T04:03:00.447Z,99.90
2017-08-02T04:05:28.044Z,99.90
2017-08-02T04:07:55.650Z,99.90
2017-08-02T04:10:23.250Z,99.90
2017-08-02T04:12:50.837Z,99.90
2017-08-02T04:15:18.812Z,99.90
2017-08-02T04:17:46.379Z,99.90
2017-08-02T04:20:13.939Z,99.90
2017-08-02T04:22:41.530Z,99.90
2017-08-02T04:25:09.117Z,99.90
2017-08-02T04:27:36.701Z,99.90
2017-08-02T04:30:04.278Z,99.90
2017-08-02T04:32:31.917Z,99.90
2017-08-02T04:34:59.517Z,99.90
2017-08-02T04:37:27.232Z,99.90
2017-08-02T04:39:55.564Z,99.90
2017-08-02T04:42:23.133Z,99.90
2017-08-02T04:44:50.703Z,99.90
2017-08-02T04:47:18.660Z,99.90
2017-08-02T04:49:46.213Z,99.90
2017-08-02T04:52:13.771Z,99.90
2017-08-02T04:54:41.342Z,99.90
2017-08-02T04:57:08.916Z,99.90
2017-08-02T04:59:36.542Z,99.90
2017-08-02T05:02:04.112Z,99.90
2017-08-02T05:04:31.697Z,99.90
2017-08-02T05:07:00.023Z,99.90
2017-08-02T05:09:27.917Z,99.90
2017-08-02T05:11:55.589Z,99.90
2017-08-02T05:14:23.167Z,99.90
2017-08-02T05:16:50.762Z,99.90
2017-08-02T05:19:18.329Z,99.90
2017-08-02T05:21:45.913Z,99.90
2017-08-02T05:24:13.479Z,99.90
2017-08-02T05:26:41.067Z,99.90
2017-08-02T05:29:08.629Z,99.90
2017-08-02T05:31:36.993Z,99.90
2017-08-02T05:34:04.561Z,99.90
2017-08-02T05:36:33.209Z,99.90
2017-08-02T05:39:00.804Z,99.90
2017-08-02T05:41:28.381Z,99.90
2017-08-02T05:43:55.963Z,99.90
2017-08-02T05:46:23.520Z,99.90
2017-08-02T05:48:51.123Z,99.90
2017-08-02T05:51:18.704Z,99.90
2017-08-02T05:53:46.276Z,99.90
2017-08-02T05:56:13.856Z,99.90
2017-08-02T05:58:41.445Z,99.90
2017-08-02T06:01:09.006Z,99.90
2017-08-02T06:03:36.869Z,99.90
2017-08-02T06:06:04.426Z,99.90
2017-08-02T06:08:31.998Z,99.90
2017-08-02T06:10:59.587Z,99.90
2017-08-02T06:13:27.927Z,99.50
2017-08-02T06:15:55.517Z,99.50
2017-08-02T06:18:23.851Z,99.60
2017-08-02T06:20:51.464Z,99.60
2017-08-02T06:23:19.061Z,98.30
2017-08-02T06:25:46.648Z,96.40
2017-08-02T06:28:14.236Z,97.50
2017-08-02T06:30:42.974Z,97.00
2017-08-02T06:33:10.548Z,95.60
2017-08-02T06:35:38.120Z,96.60
2017-08-02T06:38:06.458Z,96.60
2017-08-02T06:40:34.012Z,96.60
2017-08-02T06:43:01.581Z,96.30
2017-08-02T06:45:29.142Z,96.10
2017-08-02T06:47:56.723Z,95.10
2017-08-02T06:50:24.287Z,95.40
2017-08-02T06:52:52.248Z,94.60
2017-08-02T06:55:19.817Z,94.90
2017-08-02T06:57:47.374Z,94.10
2017-08-02T07:00:14.963Z,92.90
2017-08-02T07:02:42.549Z,92.00
2017-08-02T07:05:10.121Z,92.20
2017-08-02T07:07:37.678Z,92.10
2017-08-02T07:10:05.233Z,91.40
2017-08-02T07:12:32.788Z,91.80
2017-08-02T07:15:00.375Z,91.40
2017-08-02T07:17:27.931Z,91.80
2017-08-02T07:19:55.782Z,92.10
2017-08-02T07:22:23.348Z,92.00
2017-08-02T07:24:50.921Z,92.30
2017-08-02T07:27:18.497Z,91.90
2017-08-02T07:29:46.055Z,92.10
2017-08-02T07:32:14.401Z,90.80
2017-08-02T07:34:41.970Z,90.80
2017-08-02T07:37:09.541Z,91.00
2017-08-02T07:39:37.110Z,91.20
2017-08-02T07:42:05.455Z,91.90
2017-08-02T07:44:33.007Z,91.80
2017-08-02T07:47:00.863Z,90.40
2017-08-02T07:49:28.429Z,92.00
2017-08-02T07:51:56.006Z,91.30
2017-08-02T07:54:23.575Z,90.30
2017-08-02T07:56:51.160Z,90.50
2017-08-02T07:59:18.749Z,91.00
2017-08-02T08:01:46.328Z,89.50
2017-08-02T08:04:13.915Z,87.40
2017-08-02T08:06:42.258Z,87.30
2017-08-02T08:09:09.840Z,87.20
2017-08-02T08:11:37.401Z,86.10
2017-08-02T08:14:05.251Z,85.30
2017-08-02T08:16:32.809Z,84.50
2017-08-02T08:19:00.364Z,83.20
2017-08-02T08:21:27.943Z,82.20
2017-08-02T08:23:55.501Z,78.80
2017-08-02T08:26:23.064Z,78.60
2017-08-02T08:28:50.618Z,78.30
2017-08-02T08:31:18.249Z,76.40
2017-08-02T08:33:45.815Z,76.80
2017-08-02T08:36:13.392Z,78.20
2017-08-02T08:38:40.967Z,77.00
2017-08-02T08:41:09.305Z,73.90
2017-08-02T08:43:36.885Z,73.40
2017-08-02T08:46:04.737Z,75.20
2017-08-02T08:48:32.297Z,74.80
2017-08-02T08:50:59.861Z,75.20
2017-08-02T08:53:27.449Z,75.30
2017-08-02T08:55:55.020Z,76.80
2017-08-02T08:58:22.629Z,77.20
2017-08-02T09:00:50.188Z,79.10
2017-08-02T09:03:17.772Z,76.70
2017-08-02T09:05:45.346Z,80.10
2017-08-02T09:08:13.691Z,78.90
2017-08-02T09:10:41.293Z,78.90
2017-08-02T09:13:08.866Z,78.30
2017-08-02T09:15:36.449Z,77.50
2017-08-02T09:18:04.429Z,78.30
2017-08-02T09:20:31.992Z,81.30
2017-08-02T09:22:59.582Z,81.50
2017-08-02T09:25:27.186Z,81.60
2017-08-02T09:27:54.853Z,81.80
2017-08-02T09:30:22.547Z,80.60
2017-08-02T09:32:50.118Z,79.80
2017-08-02T09:35:17.702Z,81.40
2017-08-02T09:37:45.298Z,81.00
2017-08-02T09:40:13.270Z,79.40
2017-08-02T09:42:40.833Z,80.70
2017-08-02T09:45:08.393Z,79.90
2017-08-02T09:47:35.976Z,80.50
2017-08-02T09:50:03.552Z,81.00
2017-08-02T09:52:31.163Z,80.60
2017-08-02T09:54:58.749Z,81.10
2017-08-02T09:57:26.357Z,80.10
2017-08-02T09:59:53.941Z,78.90
2017-08-02T10:02:21.554Z,79.50
2017-08-02T10:04:49.168Z,78.90
2017-08-02T10:07:16.744Z,80.10
2017-08-02T10:09:44.320Z,79.80
2017-08-02T10:12:12.760Z,76.00
2017-08-02T10:14:40.334Z,76.00
2017-08-02T10:17:07.904Z,77.90
2017-08-02T10:19:35.479Z,75.90
2017-08-02T10:22:03.818Z,71.00
2017-08-02T10:24:31.821Z,70.90
2017-08-02T10:26:59.384Z,71.70
2017-08-02T10:29:27.725Z,68.80
2017-08-02T10:31:55.314Z,68.70
2017-08-02T10:34:22.887Z,68.20
2017-08-02T10:36:50.503Z,67.40
2017-08-02T10:39:18.061Z,67.80
2017-08-02T10:41:45.943Z,69.90
2017-08-02T10:44:13.833Z,65.60
2017-08-02T10:46:41.718Z,64.60
2017-08-02T10:49:09.305Z,66.10
2017-08-02T10:51:36.893Z,63.80
2017-08-02T10:54:04.489Z,63.50
2017-08-02T10:56:32.311Z,62.10
2017-08-02T10:59:00.146Z,61.90
2017-08-02T11:01:27.702Z,61.30
2017-08-02T11:03:55.284Z,60.70
2017-08-02T11:06:22.835Z,62.80
2017-08-02T11:08:50.446Z,61.70
2017-08-02T11:11:18.003Z,59.80
2017-08-02T11:13:45.941Z,59.30
2017-08-02T11:16:13.497Z,60.10
2017-08-02T11:18:41.069Z,59.00
2017-08-02T11:21:08.653Z,59.10
2017-08-02T11:23:36.225Z,56.60
2017-08-02T11:26:03.827Z,57.00
2017-08-02T11:28:31.461Z,56.90
2017-08-02T11:30:59.121Z,57.30
2017-08-02T11:33:26.698Z,58.20
2017-08-02T11:35:54.585Z,57.40
2017-08-02T11:38:22.148Z,56.80
2017-08-02T11:40:49.721Z,56.60
2017-08-02T11:43:18.103Z,55.80
2017-08-02T11:45:46.450Z,56.20
2017-08-02T11:48:14.021Z,56.20
2017-08-02T11:50:41.596Z,55.60
2017-08-02T11:53:09.966Z,55.80
2017-08-02T11:55:37.547Z,55.80
2017-08-02T11:58:05.457Z,54.60
2017-08-02T12:00:33.033Z,54.30
2017-08-02T12:03:00.593Z,53.40
2017-08-02T12:05:28.162Z,53.00
2017-08-02T12:07:55.728Z,53.70
2017-08-02T12:10:24.095Z,51.60
2017-08-02T12:12:51.696Z,51.60
2017-08-02T12:15:19.374Z,51.60
2017-08-02T12:17:46.951Z,49.70
2017-08-02T12:20:14.977Z,49.10
2017-08-02T12:22:42.601Z,48.90
2017-08-02T12:25:10.212Z,49.50
2017-08-02T12:27:37.801Z,50.10
2017-08-02T12:30:05.374Z,50.20
2017-08-02T12:32:32.985Z,49.90
2017-08-02T12:35:00.561Z,50.10
2017-08-02T12:37:28.166Z,49.20
2017-08-02T12:39:55.742Z,48.80
2017-08-02T12:42:23.631Z,49.10
2017-08-02T12:44:51.200Z,49.50
2017-08-02T12:47:18.767Z,50.10
2017-08-02T12:49:46.364Z,49.50
2017-08-02T12:52:13.976Z,49.00
2017-08-02T12:54:41.567Z,48.20
2017-08-02T12:57:09.176Z,46.60
2017-08-02T12:59:36.848Z,46.60
2017-08-02T13:02:04.447Z,46.20
2017-08-02T13:04:32.028Z,45.90
2017-08-02T13:07:00.383Z,46.20
2017-08-02T13:09:27.973Z,46.00
2017-08-02T13:11:56.314Z,45.50
2017-08-02T13:14:23.881Z,45.50
2017-08-02T13:16:51.456Z,45.90
2017-08-02T13:19:19.030Z,45.10
2017-08-02T13:21:46.609Z,45.40
2017-08-02T13:24:14.186Z,46.20
2017-08-02T13:26:41.745Z,45.80
2017-08-02T13:29:09.338Z,45.60
2017-08-02T13:31:36.919Z,45.00
2017-08-02T13:34:04.861Z,43.80
2017-08-02T13:36:32.446Z,44.70
2017-08-02T13:39:00.774Z,43.70
2017-08-02T13:41:28.367Z,43.70
2017-08-02T13:43:55.935Z,44.10
2017-08-02T13:46:24.283Z,44.30
2017-08-02T13:48:51.864Z,44.30
2017-08-02T13:51:19.449Z,41.90
2017-08-02T13:53:47.029Z,41.20
2017-08-02T13:56:14.936Z,41.00
2017-08-02T13:58:42.509Z,40.60
2017-08-02T14:01:10.123Z,41.40
2017-08-02T14:03:37.693Z,41.70
2017-08-02T14:06:05.247Z,42.20
2017-08-02T14:08:32.834Z,42.80
2017-08-02T14:11:00.396Z,41.10
2017-08-02T14:13:28.271Z,40.90
2017-08-02T14:15:55.848Z,41.70
2017-08-02T14:18:23.407Z,40.40
2017-08-02T14:20:51.749Z,38.40
2017-08-02T14:23:19.307Z,38.40
2017-08-02T14:25:47.151Z,38.40
2017-08-02T14:28:14.712Z,38.30
2017-08-02T14:30:42.303Z,38.70
2017-08-02T14:33:09.880Z,39.20
2017-08-02T14:35:37.497Z,37.80
2017-08-02T14:38:05.061Z,36.90
2017-08-02T14:40:32.638Z,36.50
2017-08-02T14:43:00.207Z,34.80
2017-08-02T14:45:28.543Z,30.10
2017-08-02T14:47:56.123Z,30.10
2017-08-02T14:50:23.712Z,29.50
2017-08-02T14:52:52.100Z,30.00
2017-08-02T14:55:19.691Z,30.00
2017-08-02T14:57:47.296Z,30.00
2017-08-02T15:00:15.694Z,31.80
2017-08-02T15:02:43.308Z,31.80
2017-08-02T15:05:10.917Z,33.80
2017-08-02T15:07:38.479Z,32.90
2017-08-02T15:10:06.044Z,30.70
2017-08-02T15:12:33.648Z,29.20
2017-08-02T15:15:01.228Z,27.50
2017-08-02T15:17:28.807Z,26.60
2017-08-02T15:19:56.373Z,25.70
2017-08-02T15:22:23.955Z,25.60
2017-08-02T15:24:51.534Z,24.50
2017-08-02T15:27:19.442Z,23.70
2017-08-02T15:29:47.019Z,23.70
2017-08-02T15:32:15.444Z,22.50
2017-08-02T15:34:43.022Z,23.40
2017-08-02T15:37:10.577Z,23.20
2017-08-02T15:39:38.167Z,23.50
2017-08-02T15:42:05.782Z,22.30
2017-08-02T15:44:33.370Z,22.10
2017-08-02T15:47:00.935Z,22.50
2017-08-02T15:49:28.910Z,21.90
2017-08-02T15:51:57.622Z,23.30
2017-08-02T15:54:25.195Z,22.00
2017-08-02T15:56:52.774Z,21.60
2017-08-02T15:59:20.347Z,21.30
2017-08-02T16:01:47.926Z,22.30
2017-08-02T16:04:15.485Z,23.00
2017-08-02T16:06:43.069Z,22.30
2017-08-02T16:09:10.641Z,22.90
2017-08-02T16:11:38.229Z,23.70
2017-08-02T16:14:05.819Z,24.30
2017-08-02T16:16:33.466Z,24.60
2017-08-02T16:19:01.018Z,26.20
2017-08-02T16:21:28.883Z,26.20
2017-08-02T16:23:56.446Z,26.20
2017-08-02T16:26:24.032Z,27.30
2017-08-02T16:28:52.380Z,30.30
2017-08-02T16:31:19.952Z,29.80
2017-08-02T16:33:47.545Z,31.90
2017-08-02T16:36:15.116Z,33.30
2017-08-02T16:38:42.694Z,34.40
2017-08-02T16:41:10.256Z,36.50
2017-08-02T16:43:38.136Z,37.80
2017-08-02T16:46:05.701Z,39.00
2017-08-02T16:48:33.285Z,39.60
2017-08-02T16:51:00.865Z,40.60
2017-08-02T16:53:29.186Z,41.70
2017-08-02T16:55:56.752Z,41.70
2017-08-02T16:58:24.332Z,42.40
2017-08-02T17:00:51.891Z,43.20
2017-08-02T17:03:19.481Z,43.90
2017-08-02T17:05:47.344Z,43.30
2017-08-02T17:08:15.689Z,44.40
2017-08-02T17:10:43.265Z,44.30
2017-08-02T17:13:11.616Z,44.40
2017-08-02T17:15:39.165Z,44.40
2017-08-02T17:18:06.742Z,45.00
2017-08-02T17:20:34.307Z,45.70
2017-08-02T17:23:02.257Z,46.00
2017-08-02T17:25:29.809Z,46.20
2017-08-02T17:27:57.396Z,46.00
2017-08-02T17:30:25.745Z,47.50
2017-08-02T17:32:53.515Z,46.90
2017-08-02T17:35:21.110Z,46.00
2017-08-02T17:37:49.458Z,46.10
2017-08-02T17:40:17.052Z,46.20
2017-08-02T17:42:45.374Z,46.80
2017-08-02T17:45:13.361Z,46.70
2017-08-02T17:47:40.912Z,47.20
2017-08-02T17:50:08.485Z,48.10
2017-08-02T17:52:36.063Z,47.40
2017-08-02T17:55:03.659Z,47.80
2017-08-02T17:57:31.271Z,48.60
2017-08-02T17:59:59.604Z,51.20
2017-08-02T18:02:27.198Z,51.20
2017-08-02T18:04:55.555Z,53.00
2017-08-02T18:07:23.171Z,52.30
2017-08-02T18:09:50.751Z,55.90
2017-08-02T18:12:18.619Z,56.80
2017-08-02T18:14:46.201Z,57.70
2017-08-02T18:17:13.765Z,58.80
2017-08-02T18:19:41.418Z,59.80
2017-08-02T18:22:09.028Z,60.20
2017-08-02T18:24:36.683Z,61.00
2017-08-02T18:27:04.308Z,62.50
2017-08-02T18:29:31.921Z,61.70
2017-08-02T18:31:59.562Z,62.90
2017-08-02T18:34:27.183Z,64.20
2017-08-02T18:36:54.752Z,66.30
2017-08-02T18:39:22.710Z,67.20
2017-08-02T18:41:50.304Z,67.80
2017-08-02T18:44:17.894Z,68.10
2017-08-02T18:46:45.475Z,67.70
2017-08-02T18:49:13.132Z,67.70
2017-08-02T18:51:40.724Z,69.30
2017-08-02T18:54:08.307Z,69.50
2017-08-02T18:56:35.905Z,70.80
2017-08-02T18:59:03.532Z,70.60
2017-08-02T19:01:31.529Z,69.00
2017-08-02T19:03:59.262Z,72.30
2017-08-02T19:06:26.855Z,72.90
2017-08-02T19:08:54.435Z,73.30
2017-08-02T19:11:22.376Z,72.70
2017-08-02T19:13:49.972Z,74.10
2017-08-02T19:16:17.563Z,74.60
2017-08-02T19:18:45.311Z,74.00
2017-08-02T19:21:12.940Z,74.70
2017-08-02T19:23:40.982Z,75.80
2017-08-02T19:26:08.558Z,75.70
2017-08-02T19:28:36.243Z,75.10
2017-08-02T19:31:03.870Z,76.50
2017-08-02T19:33:31.533Z,76.30
2017-08-02T19:35:59.169Z,76.70
2017-08-02T19:38:26.749Z,76.70
2017-08-02T19:40:54.341Z,77.60
2017-08-02T19:43:22.042Z,77.70
2017-08-02T19:45:50.669Z,77.90
2017-08-02T19:48:18.259Z,77.80
2017-08-02T19:50:45.842Z,77.60
2017-08-02T19:53:14.198Z,78.10
2017-08-02T19:55:42.559Z,78.30
2017-08-02T19:58:10.221Z,78.80
2017-08-02T20:00:38.608Z,78.80
2017-08-02T20:03:06.198Z,78.70
2017-08-02T20:05:33.821Z,79.10
2017-08-02T20:08:01.737Z,79.30
2017-08-02T20:10:29.341Z,79.80
2017-08-02T20:12:56.939Z,80.70
2017-08-02T20:15:25.356Z,80.40
2017-08-02T20:17:52.951Z,80.40
2017-08-02T20:20:20.570Z,81.00
2017-08-02T20:22:50.839Z,80.90
2017-08-02T20:25:18.442Z,81.20
2017-08-02T20:27:46.027Z,81.80
2017-08-02T20:30:13.643Z,81.80
2017-08-02T20:32:41.987Z,82.60
2017-08-02T20:35:09.583Z,82.60
2017-08-02T20:37:37.161Z,82.20
2017-08-02T20:40:04.776Z,80.90
2017-08-02T20:42:33.162Z,80.80
2017-08-02T20:45:00.779Z,81.40
2017-08-02T20:47:28.352Z,81.80
2017-08-02T20:49:56.210Z,82.10
2017-08-02T20:52:23.836Z,82.30
2017-08-02T20:54:51.397Z,82.50
2017-08-02T20:57:19.346Z,83.00
2017-08-02T20:59:46.919Z,83.20
2017-08-02T21:02:14.503Z,83.60
2017-08-02T21:04:42.080Z,83.70
2017-08-02T21:07:09.796Z,83.80
2017-08-02T21:09:37.392Z,84.60
2017-08-02T21:12:04.968Z,84.60
2017-08-02T21:14:32.808Z,84.80
2017-08-02T21:17:00.397Z,85.20
2017-08-02T21:19:28.105Z,84.90
2017-08-02T21:21:55.779Z,85.20
2017-08-02T21:24:23.349Z,84.50
2017-08-02T21:26:50.938Z,84.10
2017-08-02T21:29:18.491Z,83.60
2017-08-02T21:31:46.342Z,83.10
2017-08-02T21:34:13.922Z,83.90
2017-08-02T21:36:41.506Z,83.80
2017-08-02T21:39:09.090Z,84.10
2017-08-02T21:41:36.723Z,85.20
2017-08-02T21:44:05.086Z,84.20
2017-08-02T21:46:33.440Z,84.60
2017-08-02T21:49:01.050Z,84.50
2017-08-02T21:51:28.617Z,84.70
2017-08-02T21:53:56.211Z,85.50
2017-08-02T21:56:23.824Z,85.90
2017-08-02T21:58:51.732Z,86.20
2017-08-02T22:01:31.141Z,86.80
2017-08-02T22:03:59.003Z,87.00
2017-08-02T22:06:26.580Z,87.20
2017-08-02T22:08:54.167Z,87.20
2017-08-02T22:11:21.751Z,87.30
2017-08-02T22:13:50.092Z,87.80
2017-08-02T22:16:17.770Z,87.80
2017-08-02T22:18:45.357Z,88.00
2017-08-02T22:21:12.922Z,87.50
2017-08-02T22:23:41.265Z,88.40
2017-08-02T22:26:08.853Z,88.40
2017-08-02T22:28:37.380Z,88.70
2017-08-02T22:31:05.268Z,88.60
2017-08-02T22:33:33.624Z,89.10
2017-08-02T22:36:01.197Z,88.20
2017-08-02T22:38:28.803Z,88.10
2017-08-02T22:40:56.407Z,87.60
2017-08-02T22:43:23.996Z,87.90
2017-08-02T22:45:52.506Z,88.10
2017-08-02T22:48:20.086Z,88.10
2017-08-02T22:50:47.718Z,88.00
2017-08-02T22:53:15.307Z,88.00
2017-08-02T22:55:42.883Z,88.20
2017-08-02T22:58:10.463Z,88.20
2017-08-02T23:00:38.043Z,88.30
2017-08-02T23:03:05.997Z,88.30
2017-08-02T23:05:33.564Z,88.70
2017-08-02T23:08:01.130Z,88.80
2017-08-02T23:10:28.757Z,89.20
2017-08-02T23:12:56.509Z,89.00
2017-08-02T23:15:24.184Z,89.20
2017-08-02T23:17:51.773Z,89.10
2017-08-02T23:20:19.330Z,89.20
2017-08-02T23:22:46.901Z,89.50
2017-08-02T23:25:14.501Z,89.40
2017-08-02T23:27:42.058Z,89.50
2017-08-02T23:30:09.970Z,89.50
2017-08-02T23:32:37.535Z,89.30
2017-08-02T23:35:05.154Z,89.80
2017-08-02T23:37:32.742Z,89.80
2017-08-02T23:40:00.314Z,89.60
2017-08-02T23:42:27.896Z,89.40
2017-08-02T23:44:56.317Z,90.00
2017-08-02T23:47:23.932Z,90.00
2017-08-02T23:49:51.521Z,89.60
2017-08-02T23:52:19.426Z,89.90
2017-08-02T23:54:47.005Z,90.00
2017-08-02T23:57:14.724Z,89.70
2017-08-02T23:59:42.312Z,90.00
